Here is the Quick Look data you requested

The Data originates at the National Weather Service, and is made available here by the UAlbany Department of Atmospheric and Environmental Sciences

Surface Observations

KBDL 230951Z 00000KT 10SM BKN170 BKN230 01/M06 A2995 RMK AO2 SLP142 T00061061=
KBDR 230952Z AUTO 34006KT 10SM CLR 02/M07 A2997 RMK AO2 SLP150 T00171067=
KDXR 230953Z AUTO 00000KT 10SM CLR M03/M06 A2998 RMK AO2 SLP155 T10281061=
KGON 230956Z AUTO 28003KT 10SM CLR 00/M06 A2994 RMK AO2 SLP139 T00001056=
KHFD 230953Z 00000KT 10SM CLR M02/M04 A2997 RMK AO2 SLP147 T10171044=
KHVN 230953Z 00000KT 10SM CLR 02/M07 A2997 RMK AO2 SLP148 T00171067=
KIJD 230952Z AUTO 00000KT 10SM CLR M02/M06 A2995 RMK AO2 SLP141 T10221056=
KMMK 230953Z AUTO 00000KT 10SM CLR 00/M06 A2996 RMK AO2 SLP147 T00001061=
KOXC 230951Z AUTO VRB04KT 10SM CLR M01/M06 A2995 RMK AO2 SLP160 T10061061